createdAt,value
2019-03-24T00:01:41.055Z,80.07
2019-03-24T00:04:07.214Z,87.50
2019-03-24T00:06:35.511Z,81.12
2019-03-24T00:09:05.949Z,81.87
2019-03-24T00:11:34.483Z,78.47
2019-03-24T00:14:02.697Z,84.50
2019-03-24T00:16:31.010Z,83.27
2019-03-24T00:18:59.356Z,87.80
2019-03-24T00:21:27.552Z,93.20
2019-03-24T00:23:55.858Z,104.03
2019-03-24T00:26:24.075Z,85.75
2019-03-24T00:28:52.467Z,86.40
2019-03-24T00:31:20.687Z,82.72
2019-03-24T00:33:49.024Z,82.37
2019-03-24T00:36:17.160Z,75.52
2019-03-24T00:38:45.560Z,83.62
2019-03-24T00:41:13.781Z,97.85
2019-03-24T00:43:42.246Z,91.20
2019-03-24T00:46:10.449Z,83.95
2019-03-24T00:48:38.748Z,91.50
2019-03-24T00:51:06.962Z,86.17
2019-03-24T00:53:35.164Z,86.65
2019-03-24T00:56:03.389Z,96.82
2019-03-24T00:58:31.689Z,77.87
2019-03-24T01:01:00.025Z,89.00
2019-03-24T01:03:28.333Z,89.67
2019-03-24T01:05:56.616Z,90.75
2019-03-24T01:08:24.891Z,97.12
2019-03-24T01:10:53.101Z,107.15
2019-03-24T01:13:21.473Z,91.17
2019-03-24T01:15:49.791Z,94.30
2019-03-24T01:18:18.202Z,96.40
2019-03-24T01:20:46.530Z,88.07
2019-03-24T01:23:14.756Z,89.17
2019-03-24T01:25:43.025Z,90.80
2019-03-24T01:28:11.341Z,92.88
2019-03-24T01:30:39.648Z,98.62
2019-03-24T01:33:07.852Z,95.45
2019-03-24T01:35:36.027Z,80.97
2019-03-24T01:38:04.344Z,92.37
2019-03-24T01:40:32.632Z,103.17
2019-03-24T01:43:00.851Z,101.35
2019-03-24T01:45:29.199Z,99.17
2019-03-24T01:48:00.017Z,85.67
2019-03-24T01:50:30.577Z,96.25
2019-03-24T01:52:58.793Z,103.87
2019-03-24T01:55:27.084Z,84.85
2019-03-24T01:57:55.451Z,87.22
2019-03-24T02:00:23.821Z,98.22
2019-03-24T02:02:52.189Z,100.18
2019-03-24T02:05:20.378Z,91.30
2019-03-24T02:07:48.711Z,93.47
2019-03-24T02:10:17.142Z,107.95
2019-03-24T02:12:45.449Z,105.87
2019-03-24T02:15:14.017Z,90.07
2019-03-24T02:17:42.426Z,95.97
2019-03-24T02:20:11.017Z,88.85
2019-03-24T02:22:39.726Z,94.30
2019-03-24T02:25:08.116Z,96.57
2019-03-24T02:27:36.889Z,91.17
2019-03-24T02:30:05.728Z,94.62
2019-03-24T02:32:34.528Z,99.55
2019-03-24T02:35:02.857Z,105.83
2019-03-24T02:37:32.790Z,102.00
2019-03-24T02:40:01.100Z,94.55
2019-03-24T02:42:31.062Z,94.32
2019-03-24T02:44:59.359Z,104.17
2019-03-24T02:47:27.544Z,96.28
2019-03-24T02:49:55.773Z,102.58
2019-03-24T02:52:24.119Z,100.65
2019-03-24T02:54:52.325Z,109.70
2019-03-24T02:57:20.584Z,95.15
2019-03-24T02:59:48.821Z,97.25
2019-03-24T03:02:17.091Z,98.45
2019-03-24T03:04:45.473Z,97.57
2019-03-24T03:07:13.749Z,108.72
2019-03-24T03:09:42.119Z,114.37
2019-03-24T03:12:10.387Z,100.02
2019-03-24T03:14:38.582Z,89.50
2019-03-24T03:17:06.871Z,103.42
2019-03-24T03:19:35.070Z,89.87
2019-03-24T03:22:03.342Z,112.70
2019-03-24T03:24:31.654Z,105.70
2019-03-24T03:26:59.766Z,108.17
2019-03-24T03:29:28.054Z,94.95
2019-03-24T03:31:56.437Z,98.35
2019-03-24T03:34:24.784Z,101.65
2019-03-24T03:36:53.070Z,100.60
2019-03-24T03:39:21.420Z,94.55
2019-03-24T03:41:49.638Z,99.75
2019-03-24T03:44:18.224Z,96.60
2019-03-24T03:46:52.342Z,96.20
2019-03-24T03:49:16.518Z,101.72
2019-03-24T03:51:44.733Z,99.17
2019-03-24T03:54:13.013Z,85.57
2019-03-24T03:56:41.208Z,105.00
2019-03-24T03:59:09.625Z,110.55
2019-03-24T04:01:37.718Z,97.22
2019-03-24T04:04:06.298Z,101.02
2019-03-24T04:06:34.489Z,96.70
2019-03-24T04:09:04.410Z,104.25
2019-03-24T04:11:32.901Z,111.97
2019-03-24T04:14:01.201Z,104.17
2019-03-24T04:16:29.669Z,104.50
2019-03-24T04:18:57.926Z,101.78
2019-03-24T04:21:26.125Z,101.90
2019-03-24T04:23:54.406Z,106.35
2019-03-24T04:26:22.645Z,106.03
2019-03-24T04:28:50.929Z,99.47
2019-03-24T04:31:19.118Z,97.90
2019-03-24T04:33:47.410Z,95.92
2019-03-24T04:36:15.682Z,105.30
2019-03-24T04:38:43.904Z,84.47
2019-03-24T04:41:12.186Z,92.12
2019-03-24T04:43:40.413Z,91.87
2019-03-24T04:46:08.877Z,102.25
2019-03-24T04:48:37.287Z,98.15
2019-03-24T04:51:05.453Z,103.45
2019-03-24T04:53:33.787Z,102.32
2019-03-24T04:56:02.074Z,98.00
2019-03-24T04:58:30.295Z,105.45
2019-03-24T05:00:58.771Z,99.32
2019-03-24T05:03:27.493Z,105.65
2019-03-24T05:05:55.949Z,113.28
2019-03-24T05:08:24.904Z,102.25
2019-03-24T05:10:53.201Z,104.55
2019-03-24T05:13:21.389Z,101.62
2019-03-24T05:15:49.665Z,121.60
2019-03-24T05:18:17.894Z,98.60
2019-03-24T05:20:46.161Z,102.62
2019-03-24T05:23:14.560Z,107.55
2019-03-24T05:25:42.810Z,99.37
2019-03-24T05:28:11.090Z,88.37
2019-03-24T05:30:39.276Z,113.62
2019-03-24T05:33:07.661Z,103.50
2019-03-24T05:35:35.861Z,107.37
2019-03-24T05:38:04.118Z,93.47
2019-03-24T05:40:32.329Z,100.27
2019-03-24T05:43:00.590Z,106.05
2019-03-24T05:45:28.805Z,93.80
2019-03-24T05:47:56.982Z,107.92
2019-03-24T05:50:25.268Z,112.47
2019-03-24T05:52:53.564Z,113.03
2019-03-24T05:55:21.774Z,107.27
2019-03-24T05:57:50.175Z,96.78
2019-03-24T06:00:18.401Z,98.47
2019-03-24T06:02:46.725Z,99.75
2019-03-24T06:05:15.136Z,98.90
2019-03-24T06:07:43.420Z,99.42
2019-03-24T06:10:11.778Z,111.35
2019-03-24T06:12:40.508Z,99.45
2019-03-24T06:15:09.327Z,96.63
2019-03-24T06:17:47.394Z,109.85
2019-03-24T06:20:08.313Z,107.72
2019-03-24T06:22:37.000Z,107.10
2019-03-24T06:25:05.680Z,111.32
2019-03-24T06:27:33.903Z,114.52
2019-03-24T06:30:02.285Z,104.43
2019-03-24T06:32:32.093Z,101.92
2019-03-24T06:35:00.495Z,101.15
2019-03-24T06:37:28.721Z,98.90
2019-03-24T06:39:57.019Z,86.17
2019-03-24T06:42:25.243Z,93.20
2019-03-24T06:44:53.597Z,83.30
2019-03-24T06:47:21.815Z,88.65
2019-03-24T06:49:50.169Z,81.75
2019-03-24T06:52:18.824Z,96.00
2019-03-24T06:54:47.041Z,78.22
2019-03-24T06:57:16.895Z,84.42
2019-03-24T06:59:45.444Z,98.65
2019-03-24T07:02:13.656Z,100.00
2019-03-24T07:04:41.893Z,94.55
2019-03-24T07:07:10.215Z,102.30
2019-03-24T07:09:38.404Z,93.33
2019-03-24T07:12:06.676Z,92.27
2019-03-24T07:14:34.854Z,95.20
2019-03-24T07:17:03.039Z,105.00
2019-03-24T07:19:31.236Z,96.63
2019-03-24T07:21:59.557Z,104.35
2019-03-24T07:24:27.774Z,93.75
2019-03-24T07:26:56.124Z,110.05
2019-03-24T07:29:24.394Z,98.60
2019-03-24T07:31:52.678Z,95.05
2019-03-24T07:34:20.995Z,96.20
2019-03-24T07:36:49.431Z,100.50
2019-03-24T07:39:17.761Z,100.53
2019-03-24T07:41:45.966Z,115.05
2019-03-24T07:44:14.264Z,99.75
2019-03-24T07:46:42.501Z,103.25
2019-03-24T07:49:10.897Z,95.25
2019-03-24T07:51:39.162Z,99.83
2019-03-24T07:54:07.702Z,104.85
2019-03-24T07:56:36.229Z,105.35
2019-03-24T07:59:04.542Z,96.57
2019-03-24T08:01:32.809Z,95.42
2019-03-24T08:04:01.127Z,98.60
2019-03-24T08:06:29.326Z,101.25
2019-03-24T08:08:57.647Z,103.83
2019-03-24T08:11:25.888Z,106.50
2019-03-24T08:13:54.272Z,91.87
2019-03-24T08:16:22.425Z,103.90
2019-03-24T08:18:50.704Z,95.62
2019-03-24T08:21:18.922Z,97.20
2019-03-24T08:23:47.303Z,97.88
2019-03-24T08:26:15.584Z,105.67
2019-03-24T08:28:44.015Z,99.52
2019-03-24T08:31:12.226Z,96.45
2019-03-24T08:33:40.561Z,99.15
2019-03-24T08:36:08.843Z,101.02
2019-03-24T08:38:37.178Z,95.07
2019-03-24T08:41:05.545Z,92.30
2019-03-24T08:43:34.246Z,95.53
2019-03-24T08:46:03.176Z,94.87
2019-03-24T08:48:40.967Z,104.58
2019-03-24T08:51:04.857Z,94.28
2019-03-24T08:53:33.156Z,100.12
2019-03-24T08:56:01.584Z,88.85
2019-03-24T08:58:30.085Z,93.97
2019-03-24T09:00:58.393Z,88.75
2019-03-24T09:03:26.727Z,90.77
2019-03-24T09:05:55.032Z,101.22
2019-03-24T09:08:23.293Z,89.95
2019-03-24T09:10:51.637Z,85.97
2019-03-24T09:13:19.913Z,93.97
2019-03-24T09:15:48.540Z,83.10
2019-03-24T09:18:16.785Z,100.60
2019-03-24T09:20:45.110Z,94.58
2019-03-24T09:23:13.355Z,99.83
2019-03-24T09:25:41.628Z,79.58
2019-03-24T09:28:09.902Z,88.97
2019-03-24T09:30:39.322Z,87.25
2019-03-24T09:33:07.730Z,77.72
2019-03-24T09:35:36.220Z,78.62
2019-03-24T09:38:05.226Z,80.17
2019-03-24T09:40:34.178Z,78.30
2019-03-24T09:43:04.747Z,77.17
2019-03-24T09:45:33.330Z,88.75
2019-03-24T09:48:05.134Z,83.45
2019-03-24T09:50:33.607Z,86.72
2019-03-24T09:53:01.966Z,82.82
2019-03-24T09:55:30.737Z,80.25
2019-03-24T09:57:59.054Z,75.65
2019-03-24T10:00:27.360Z,78.12
2019-03-24T10:02:55.875Z,77.37
2019-03-24T10:05:24.140Z,82.35
2019-03-24T10:07:52.530Z,80.15
2019-03-24T10:10:22.650Z,83.65
2019-03-24T10:12:54.157Z,78.80
2019-03-24T10:15:22.600Z,76.97
2019-03-24T10:17:51.406Z,79.72
2019-03-24T10:20:20.554Z,82.70
2019-03-24T10:22:55.210Z,73.10
2019-03-24T10:25:23.834Z,78.95
2019-03-24T10:27:52.623Z,88.27
2019-03-24T10:30:23.317Z,75.37
2019-03-24T10:32:52.503Z,75.17
2019-03-24T10:35:20.882Z,78.37
2019-03-24T10:37:49.179Z,79.47
2019-03-24T10:40:27.913Z,74.77
2019-03-24T10:42:48.154Z,76.92
2019-03-24T10:45:16.579Z,73.83
2019-03-24T10:47:45.008Z,76.45
2019-03-24T10:50:19.430Z,74.42
2019-03-24T10:52:50.465Z,69.37
2019-03-24T10:55:27.557Z,75.17
2019-03-24T10:57:55.922Z,77.27
2019-03-24T11:00:37.264Z,67.20
2019-03-24T11:03:09.826Z,71.55
2019-03-24T11:05:47.361Z,65.85
2019-03-24T11:08:15.826Z,68.92
2019-03-24T11:10:44.078Z,70.17
2019-03-24T11:13:12.330Z,69.60
2019-03-24T11:15:40.674Z,70.12
2019-03-24T11:18:08.993Z,68.87
2019-03-24T11:20:37.294Z,67.00
2019-03-24T11:23:05.564Z,66.15
2019-03-24T11:25:33.907Z,71.40
2019-03-24T11:28:02.224Z,60.45
2019-03-24T11:30:30.670Z,61.77
2019-03-24T11:32:59.078Z,61.90
2019-03-24T11:35:27.414Z,63.68
2019-03-24T11:37:59.338Z,64.82
2019-03-24T11:40:30.597Z,61.53
2019-03-24T11:42:58.837Z,60.58
2019-03-24T11:45:27.622Z,63.85
2019-03-24T11:47:56.014Z,72.12
2019-03-24T11:50:24.364Z,60.50
2019-03-24T11:52:52.726Z,59.40
2019-03-24T11:55:21.080Z,59.18
2019-03-24T11:57:51.442Z,65.80
2019-03-24T12:00:27.899Z,65.72
2019-03-24T12:02:57.738Z,57.20
2019-03-24T12:05:26.082Z,58.80
2019-03-24T12:07:54.374Z,54.00
2019-03-24T12:10:22.714Z,62.13
2019-03-24T12:12:50.962Z,62.03
2019-03-24T12:15:19.220Z,57.60
2019-03-24T12:17:47.543Z,59.10
2019-03-24T12:20:15.938Z,56.25
2019-03-24T12:22:44.370Z,55.40
2019-03-24T12:25:12.511Z,62.80
2019-03-24T12:27:40.959Z,60.75
2019-03-24T12:30:09.495Z,57.50
2019-03-24T12:32:38.444Z,57.27
2019-03-24T12:35:07.068Z,61.10
2019-03-24T12:37:35.628Z,54.03
2019-03-24T12:40:04.289Z,58.30
2019-03-24T12:42:34.297Z,54.53
2019-03-24T12:45:02.852Z,51.40
2019-03-24T12:47:32.794Z,49.67
2019-03-24T12:50:08.658Z,50.95
2019-03-24T12:52:32.901Z,50.60
2019-03-24T12:55:01.051Z,53.70
2019-03-24T12:57:30.301Z,54.40
2019-03-24T12:59:58.588Z,54.08
2019-03-24T13:02:26.941Z,52.30
2019-03-24T13:04:55.162Z,52.13
2019-03-24T13:07:23.396Z,50.65
2019-03-24T13:09:51.802Z,52.43
2019-03-24T13:12:20.101Z,52.93
2019-03-24T13:14:49.498Z,53.52
2019-03-24T13:17:17.826Z,51.15
2019-03-24T13:19:46.209Z,52.20
2019-03-24T13:22:14.457Z,54.08
2019-03-24T13:24:42.827Z,45.03
2019-03-24T13:27:11.057Z,48.90
2019-03-24T13:29:39.507Z,47.80
2019-03-24T13:32:07.779Z,52.93
2019-03-24T13:34:36.092Z,50.08
2019-03-24T13:37:04.430Z,50.83
2019-03-24T13:39:32.902Z,49.42
2019-03-24T13:42:01.030Z,51.30
2019-03-24T13:44:29.343Z,51.55
2019-03-24T13:46:57.642Z,47.17
2019-03-24T13:49:25.970Z,51.65
2019-03-24T13:51:54.194Z,49.05
2019-03-24T13:54:22.680Z,52.17
2019-03-24T13:56:51.039Z,51.45
2019-03-24T13:59:19.377Z,50.73
2019-03-24T14:01:47.734Z,47.58
2019-03-24T14:04:16.130Z,48.38
2019-03-24T14:06:44.339Z,49.15
2019-03-24T14:09:12.901Z,46.23
2019-03-24T14:11:41.323Z,46.63
2019-03-24T14:14:09.582Z,51.08
2019-03-24T14:16:37.835Z,51.77
2019-03-24T14:19:06.991Z,48.80
2019-03-24T14:21:35.434Z,51.58
2019-03-24T14:24:03.681Z,52.95
2019-03-24T14:26:32.175Z,48.73
2019-03-24T14:29:00.430Z,49.67
2019-03-24T14:31:28.720Z,46.00
2019-03-24T14:33:57.003Z,51.90
2019-03-24T14:36:25.336Z,48.75
2019-03-24T14:38:53.588Z,46.60
2019-03-24T14:41:21.918Z,50.33
2019-03-24T14:43:53.063Z,49.85
2019-03-24T14:46:21.517Z,50.88
2019-03-24T14:48:49.741Z,48.73
2019-03-24T14:51:18.077Z,44.90
2019-03-24T14:53:46.499Z,48.38
2019-03-24T14:56:14.973Z,47.55
2019-03-24T14:58:43.329Z,45.17
2019-03-24T15:01:11.695Z,47.88
2019-03-24T15:03:40.012Z,48.63
2019-03-24T15:06:08.601Z,44.88
2019-03-24T15:08:36.980Z,49.88
2019-03-24T15:11:05.313Z,49.05
2019-03-24T15:13:33.789Z,46.40
2019-03-24T15:16:02.095Z,50.83
2019-03-24T15:18:30.506Z,51.77
2019-03-24T15:21:05.485Z,47.70
2019-03-24T15:23:29.112Z,60.15
2019-03-24T15:26:00.182Z,50.55
2019-03-24T15:28:28.848Z,45.73
2019-03-24T15:30:57.082Z,48.00
2019-03-24T15:33:25.477Z,49.67
2019-03-24T15:35:53.862Z,46.30
2019-03-24T15:38:22.304Z,46.33
2019-03-24T15:40:50.627Z,49.10
2019-03-24T15:43:19.077Z,51.63
2019-03-24T15:45:47.633Z,50.25
2019-03-24T15:48:16.039Z,52.43
2019-03-24T15:50:44.460Z,51.68
2019-03-24T15:53:12.959Z,47.33
2019-03-24T15:55:41.391Z,52.10
2019-03-24T15:58:09.799Z,47.05
2019-03-24T16:00:45.729Z,50.38
2019-03-24T16:03:14.930Z,50.15
2019-03-24T16:05:46.177Z,48.55
2019-03-24T16:08:14.533Z,49.55
2019-03-24T16:10:42.969Z,50.33
2019-03-24T16:13:11.269Z,46.28
2019-03-24T16:15:39.829Z,50.50
2019-03-24T16:18:08.385Z,47.50
2019-03-24T16:20:36.826Z,47.65
2019-03-24T16:23:05.279Z,48.23
2019-03-24T16:25:34.046Z,49.03
2019-03-24T16:28:02.579Z,45.48
2019-03-24T16:30:31.138Z,49.08
2019-03-24T16:32:59.580Z,44.35
2019-03-24T16:35:28.069Z,46.73
2019-03-24T16:37:56.249Z,46.53
2019-03-24T16:40:24.585Z,48.63
2019-03-24T16:42:53.081Z,49.73
2019-03-24T16:45:21.598Z,47.53
2019-03-24T16:47:50.253Z,45.50
2019-03-24T16:50:18.674Z,48.95
2019-03-24T16:52:47.025Z,46.58
2019-03-24T16:55:15.338Z,45.20
2019-03-24T16:57:43.733Z,47.80
2019-03-24T17:00:12.373Z,48.33
2019-03-24T17:02:41.076Z,55.40
2019-03-24T17:05:09.568Z,48.38
2019-03-24T17:07:38.068Z,50.00
2019-03-24T17:10:06.929Z,45.35
2019-03-24T17:12:35.618Z,57.95
2019-03-24T17:15:04.606Z,50.55
2019-03-24T17:17:33.949Z,51.25
2019-03-24T17:20:02.200Z,46.80
2019-03-24T17:22:32.105Z,50.92
2019-03-24T17:25:00.405Z,48.60
2019-03-24T17:27:28.889Z,48.08
2019-03-24T17:29:57.242Z,49.40
2019-03-24T17:32:25.578Z,45.73
2019-03-24T17:34:53.874Z,42.75
2019-03-24T17:37:22.354Z,51.48
2019-03-24T17:39:50.906Z,48.60
2019-03-24T17:42:19.260Z,56.05
2019-03-24T17:44:47.556Z,44.35
2019-03-24T17:47:15.987Z,48.00
2019-03-24T17:49:44.374Z,50.80
2019-03-24T17:52:13.216Z,49.30
2019-03-24T17:54:41.604Z,47.90
2019-03-24T17:57:10.018Z,48.98
2019-03-24T17:59:41.232Z,50.80
2019-03-24T18:02:14.316Z,49.05
2019-03-24T18:04:40.034Z,47.95
2019-03-24T18:07:08.367Z,45.48
2019-03-24T18:09:36.807Z,47.62
2019-03-24T18:12:05.397Z,46.92
2019-03-24T18:14:33.720Z,46.08
2019-03-24T18:17:02.101Z,48.98
2019-03-24T18:19:30.386Z,44.38
2019-03-24T18:21:58.805Z,44.33
2019-03-24T18:24:27.190Z,45.23
2019-03-24T18:26:55.554Z,48.78
2019-03-24T18:29:23.976Z,51.75
2019-03-24T18:31:52.264Z,49.00
2019-03-24T18:34:20.836Z,50.03
2019-03-24T18:36:49.224Z,53.05
2019-03-24T18:39:17.973Z,49.85
2019-03-24T18:41:46.413Z,51.40
2019-03-24T18:44:14.864Z,44.88
2019-03-24T18:46:43.242Z,50.52
2019-03-24T18:49:11.705Z,47.38
2019-03-24T18:51:40.002Z,51.73
2019-03-24T18:54:08.402Z,46.13
2019-03-24T18:56:36.736Z,43.65
2019-03-24T18:59:05.290Z,47.58
2019-03-24T19:01:33.827Z,50.08
2019-03-24T19:04:02.220Z,50.38
2019-03-24T19:06:30.693Z,43.50
2019-03-24T19:08:59.103Z,44.85
2019-03-24T19:11:27.466Z,45.98
2019-03-24T19:13:55.856Z,45.30
2019-03-24T19:16:24.669Z,42.62
2019-03-24T19:18:53.252Z,43.83
2019-03-24T19:21:21.765Z,49.15
2019-03-24T19:23:50.297Z,49.50
2019-03-24T19:26:18.673Z,45.50
2019-03-24T19:28:47.283Z,46.65
2019-03-24T19:31:15.655Z,47.35
2019-03-24T19:33:44.053Z,46.35
2019-03-24T19:36:12.535Z,42.53
2019-03-24T19:38:41.444Z,45.52
2019-03-24T19:41:10.179Z,41.05
2019-03-24T19:43:39.845Z,41.28
2019-03-24T19:46:08.436Z,46.85
2019-03-24T19:48:36.730Z,41.02
2019-03-24T19:51:07.035Z,39.65
2019-03-24T19:53:35.245Z,45.25
2019-03-24T19:56:03.615Z,42.25
2019-03-24T19:58:31.851Z,45.30
2019-03-24T20:01:00.277Z,41.42
2019-03-24T20:03:28.660Z,40.70
2019-03-24T20:05:57.036Z,40.38
2019-03-24T20:08:25.416Z,39.85
2019-03-24T20:10:53.700Z,40.05
2019-03-24T20:13:22.079Z,42.15
2019-03-24T20:15:50.345Z,40.85
2019-03-24T20:18:18.696Z,38.63
2019-03-24T20:20:47.146Z,40.60
2019-03-24T20:23:15.518Z,34.20
2019-03-24T20:25:43.866Z,40.35
2019-03-24T20:28:12.213Z,39.13
2019-03-24T20:30:40.495Z,37.35
2019-03-24T20:33:09.107Z,35.50
2019-03-24T20:35:37.338Z,38.70
2019-03-24T20:38:05.645Z,42.17
2019-03-24T20:40:33.938Z,41.50
2019-03-24T20:43:02.498Z,39.70
2019-03-24T20:45:30.782Z,40.05
2019-03-24T20:47:59.394Z,37.28
2019-03-24T20:50:27.811Z,37.85
2019-03-24T20:53:04.140Z,34.80
2019-03-24T20:55:26.402Z,41.83
2019-03-24T20:57:54.800Z,35.43
2019-03-24T21:00:32.328Z,41.50
2019-03-24T21:03:02.342Z,38.53
2019-03-24T21:05:32.228Z,33.95
2019-03-24T21:08:00.512Z,33.60
2019-03-24T21:10:28.888Z,35.40
2019-03-24T21:12:57.197Z,35.92
2019-03-24T21:15:25.608Z,38.17
2019-03-24T21:17:53.975Z,32.73
2019-03-24T21:20:22.309Z,30.55
2019-03-24T21:22:50.680Z,31.40
2019-03-24T21:25:19.041Z,32.67
2019-03-24T21:27:47.402Z,35.38
2019-03-24T21:30:17.797Z,32.73
2019-03-24T21:32:47.698Z,38.45
2019-03-24T21:35:16.069Z,36.65
2019-03-24T21:37:44.416Z,34.90
2019-03-24T21:40:12.776Z,32.50
2019-03-24T21:42:41.151Z,36.03
2019-03-24T21:45:09.691Z,32.10
2019-03-24T21:47:39.693Z,34.70
2019-03-24T21:50:08.070Z,31.95
2019-03-24T21:52:36.376Z,32.80
2019-03-24T21:55:05.086Z,35.10
2019-03-24T21:57:33.683Z,31.65
2019-03-24T22:00:02.121Z,30.62
2019-03-24T22:02:32.041Z,27.17
2019-03-24T22:05:00.366Z,31.27
2019-03-24T22:07:28.765Z,26.20
2019-03-24T22:09:57.001Z,25.37
2019-03-24T22:12:25.321Z,25.82
2019-03-24T22:14:53.561Z,24.90
2019-03-24T22:17:21.989Z,25.95
2019-03-24T22:19:50.243Z,25.27
2019-03-24T22:22:18.785Z,25.48
2019-03-24T22:24:47.081Z,25.40
2019-03-24T22:27:15.446Z,24.40
2019-03-24T22:29:43.690Z,25.25
2019-03-24T22:32:12.025Z,22.85
2019-03-24T22:34:40.337Z,29.42
2019-03-24T22:37:15.772Z,23.50
2019-03-24T22:39:39.078Z,21.77
2019-03-24T22:42:07.317Z,24.63
2019-03-24T22:44:35.677Z,26.10
2019-03-24T22:47:04.022Z,25.10
2019-03-24T22:49:32.407Z,26.95
2019-03-24T22:52:07.161Z,27.05
2019-03-24T22:54:31.190Z,29.15
2019-03-24T22:56:59.645Z,28.65
2019-03-24T22:59:28.173Z,29.48
2019-03-24T23:01:56.316Z,34.30
2019-03-24T23:04:24.715Z,33.58
2019-03-24T23:06:53.222Z,32.33
2019-03-24T23:09:21.623Z,35.03
2019-03-24T23:11:49.851Z,31.48
2019-03-24T23:14:18.420Z,31.05
2019-03-24T23:16:46.654Z,30.65
2019-03-24T23:19:15.093Z,29.18
2019-03-24T23:21:43.288Z,30.40
2019-03-24T23:24:15.788Z,31.55
2019-03-24T23:26:41.590Z,31.57
2019-03-24T23:29:09.878Z,29.82
2019-03-24T23:31:38.221Z,31.05
2019-03-24T23:34:06.679Z,28.32
2019-03-24T23:36:35.061Z,29.37
2019-03-24T23:39:04.292Z,27.15
2019-03-24T23:41:32.773Z,25.92
2019-03-24T23:44:01.021Z,29.67
2019-03-24T23:46:29.411Z,30.70
2019-03-24T23:48:57.726Z,24.37
2019-03-24T23:51:26.112Z,27.13
2019-03-24T23:53:54.410Z,25.08
2019-03-24T23:56:22.682Z,23.92
2019-03-24T23:58:50.900Z,23.70
